Time;durP1;ratioP1;P1;durP2;ratioP2;P2;SDS_P1;SDS_P2;PMS_P1;PMS_P2;Temp;Humidity;BMP_temperature;BMP_pressure;BME280_temperature;BME280_humidity;BME280_pressure;Samples;Min_cycle;Max_cycle;Signal;HPM_P1;HPM_P2
2020/12/01 00:00:05;;;;;;;8.48;5.82;;;;;;;21.44;41.88;95547.34;5085928;28;20035;-82
2020/12/01 00:02:31;;;;;;;8.18;6.30;;;;;;;21.42;41.69;95549.06;5052660;28;20023;-83
2020/12/01 00:04:56;;;;;;;7.93;5.57;;;;;;;21.40;41.83;95554.97;5078923;28;20026;-82
2020/12/01 00:07:22;;;;;;;8.90;5.93;;;;;;;21.36;41.96;95553.72;5104845;28;20031;-82
2020/12/01 00:09:47;;;;;;;8.13;5.78;;;;;;;21.36;41.61;95543.59;5085857;28;20011;-83
2020/12/01 00:12:12;;;;;;;7.55;5.28;;;;;;;21.34;41.78;95546.03;5085629;28;20058;-83
2020/12/01 00:14:38;;;;;;;8.52;5.68;;;;;;;21.36;41.59;95549.03;5104177;28;20409;-83
2020/12/01 00:17:03;;;;;;;8.07;5.88;;;;;;;21.33;41.59;95549.25;5085514;28;20516;-83
2020/12/01 00:19:29;;;;;;;8.25;6.20;;;;;;;21.31;41.72;95538.84;5068186;28;20042;-83
2020/12/01 00:21:54;;;;;;;8.57;5.65;;;;;;;21.28;41.81;95542.53;5085612;28;20020;-83
2020/12/01 00:24:19;;;;;;;8.30;5.88;;;;;;;21.25;41.85;95540.78;5085979;28;20061;-83
2020/12/01 00:26:45;;;;;;;8.18;5.65;;;;;;;21.22;41.86;95541.75;5068992;28;20060;-84
2020/12/01 00:29:11;;;;;;;7.82;5.55;;;;;;;21.23;42.00;95540.53;5068422;28;20023;-83
2020/12/01 00:31:38;;;;;;;7.50;5.40;;;;;;;21.22;41.92;95544.47;5052303;28;20023;-83
2020/12/01 00:34:03;;;;;;;7.60;5.70;;;;;;;21.23;41.96;95537.81;5086150;28;20040;-85
2020/12/01 00:36:29;;;;;;;8.55;6.07;;;;;;;21.20;41.83;95536.06;5070342;28;20175;-83
2020/12/01 00:38:54;;;;;;;8.38;6.00;;;;;;;21.17;41.79;95541.72;5085622;28;20024;-83
2020/12/01 00:41:19;;;;;;;7.80;5.97;;;;;;;21.15;41.64;95539.50;5086205;28;20016;-83
2020/12/01 00:43:45;;;;;;;7.95;5.40;;;;;;;21.13;41.91;95541.19;5104817;28;20038;-84
2020/12/01 00:46:10;;;;;;;7.70;5.93;;;;;;;21.12;42.10;95537.72;5104386;28;20023;-83
2020/12/01 00:48:35;;;;;;;8.27;6.10;;;;;;;21.12;41.92;95545.88;5085251;28;20047;-83
2020/12/01 00:51:01;;;;;;;8.25;6.13;;;;;;;21.12;41.66;95540.44;5085979;28;20023;-83
2020/12/01 00:53:26;;;;;;;8.10;5.72;;;;;;;21.10;41.70;95545.59;5088584;28;20034;-83
2020/12/01 00:55:52;;;;;;;8.05;6.10;;;;;;;21.09;41.75;95533.25;5107675;28;20023;-84
2020/12/01 00:58:17;;;;;;;8.43;5.55;;;;;;;21.06;41.95;95542.38;5089551;28;20027;-85
2020/12/01 01:00:43;;;;;;;7.75;5.72;;;;;;;21.04;41.97;95533.94;5072865;28;20038;-83
2020/12/01 01:03:08;;;;;;;8.75;5.90;;;;;;;21.02;42.18;95541.84;5072206;28;20020;-83
2020/12/01 01:05:34;;;;;;;8.45;5.88;;;;;;;21.03;41.95;95529.75;5055721;28;20031;-83
2020/12/01 01:07:59;;;;;;;8.27;6.30;;;;;;;21.01;41.99;95534.91;5073362;28;20030;-83
2020/12/01 01:10:28;;;;;;;7.53;5.80;;;;;;;21.00;42.05;95533.44;5055619;28;22049;-83
2020/12/01 01:12:53;;;;;;;8.02;5.80;;;;;;;20.99;41.81;95531.19;5105268;28;20028;-83
2020/12/01 01:15:19;;;;;;;7.63;5.93;;;;;;;20.97;42.06;95518.09;5072092;28;20073;-83
2020/12/01 01:17:44;;;;;;;8.43;5.90;;;;;;;20.94;41.77;95525.72;5072430;28;20440;-83
2020/12/01 01:20:10;;;;;;;7.65;5.90;;;;;;;20.95;41.91;95521.78;5089024;28;20028;-83
2020/12/01 01:22:36;;;;;;;8.80;6.28;;;;;;;20.94;41.99;95528.44;5056267;28;20050;-83
2020/12/01 01:25:01;;;;;;;9.57;6.20;;;;;;;20.93;41.82;95521.53;5073119;28;20492;-84
2020/12/01 01:27:27;;;;;;;9.45;6.22;;;;;;;20.92;41.92;95509.16;5056037;28;20035;-83
2020/12/01 01:29:52;;;;;;;8.05;5.75;;;;;;;20.91;42.56;95513.09;5090166;28;20028;-82
2020/12/01 01:32:18;;;;;;;7.90;5.50;;;;;;;20.89;41.76;95515.56;5112944;28;20016;-83
2020/12/01 01:34:43;;;;;;;7.75;6.00;;;;;;;20.89;41.85;95515.56;5101744;28;20038;-82
2020/12/01 01:37:08;;;;;;;8.43;6.13;;;;;;;20.87;41.95;95501.72;5109834;28;20039;-82
2020/12/01 01:39:34;;;;;;;7.60;5.75;;;;;;;20.86;41.83;95500.97;5094261;28;20566;-83
2020/12/01 01:41:59;;;;;;;8.57;6.40;;;;;;;20.87;41.85;95507.16;5110255;28;20027;-83
2020/12/01 01:44:27;;;;;;;9.55;6.78;;;;;;;20.87;41.80;95512.59;5057192;28;20051;-82
2020/12/01 01:47:23;;;;;;;9.10;6.80;;;;;;;20.85;41.71;95506.88;5090078;28;20032;-83
2020/12/01 01:50:18;;;;;;;7.88;5.90;;;;;;;20.84;41.87;95499.97;5074969;28;20123;-83
2020/12/01 01:52:44;;;;;;;8.38;5.55;;;;;;;20.82;41.78;95494.25;5094747;28;20519;-82
2020/12/01 01:55:16;;;;;;;8.27;5.75;;;;;;;20.80;42.27;95496.72;5089434;28;20032;-82
2020/12/01 01:57:42;;;;;;;8.55;6.15;;;;;;;20.80;41.60;95494.00;5088715;28;20062;-83
2020/12/01 02:00:15;;;;;;;8.65;6.20;;;;;;;20.78;41.81;95499.19;5088457;28;20445;-82
2020/12/01 02:02:41;;;;;;;9.05;5.88;;;;;;;20.77;41.56;95503.13;5072204;28;20031;-83
2020/12/01 02:05:06;;;;;;;9.55;6.80;;;;;;;20.75;41.92;95500.16;5088154;28;20043;-83
2020/12/01 02:07:32;;;;;;;8.80;6.75;;;;;;;20.75;41.66;95500.16;5072059;28;20084;-82
2020/12/01 02:09:57;;;;;;;8.82;5.82;;;;;;;20.74;42.12;95501.34;5106613;28;20024;-83
2020/12/01 02:12:22;;;;;;;8.48;5.75;;;;;;;20.71;41.55;95478.63;5054340;28;20028;-83
2020/12/01 02:14:58;;;;;;;8.75;5.97;;;;;;;20.74;41.89;95487.78;5071448;28;20039;-82
2020/12/01 02:17:27;;;;;;;8.68;6.07;;;;;;;20.71;41.73;95477.91;5071733;28;20096;-82
2020/12/01 02:19:58;;;;;;;7.83;5.77;;;;;;;20.71;41.73;95488.75;5086718;28;20040;-83
2020/12/01 02:22:23;;;;;;;;;;;;;;;20.71;41.77;95488.75;5078146;28;20822;-82
2020/12/01 02:24:50;;;;;;;9.32;6.03;;;;;;;20.69;41.46;95496.63;5070726;28;19924;-82
2020/12/01 02:27:17;;;;;;;8.45;6.15;;;;;;;20.67;41.73;95499.03;5104425;28;20023;-82
2020/12/01 02:29:45;;;;;;;8.15;6.10;;;;;;;20.67;41.72;95501.75;5052636;28;20035;-82
2020/12/01 02:32:10;;;;;;;9.55;6.07;;;;;;;20.66;41.69;95498.31;5087403;28;20019;-83
2020/12/01 02:34:40;;;;;;;8.07;5.68;;;;;;;20.66;41.64;95503.72;5069825;28;20030;-83
2020/12/01 02:37:05;;;;;;;9.23;6.13;;;;;;;20.66;41.64;95492.13;5073078;28;20027;-83
2020/12/01 02:39:31;;;;;;;9.10;6.22;;;;;;;20.64;41.60;95491.84;5070291;28;20119;-82
2020/12/01 02:41:57;;;;;;;8.63;6.00;;;;;;;20.62;41.87;95497.03;5087355;28;20024;-83
2020/12/01 02:44:23;;;;;;;8.82;6.40;;;;;;;20.60;41.51;95494.06;5086935;28;20063;-83
2020/12/01 02:46:49;;;;;;;9.18;6.65;;;;;;;20.57;41.58;95489.59;5053287;28;20493;-83
2020/12/01 02:49:14;;;;;;;8.23;5.43;;;;;;;20.60;41.54;95491.34;5104717;28;20023;-83
2020/12/01 02:51:39;;;;;;;10.13;6.75;;;;;;;20.59;41.46;95487.84;5105609;28;20031;-83
2020/12/01 02:54:05;;;;;;;7.60;5.88;;;;;;;20.59;41.49;95485.16;5070794;28;20459;-84
2020/12/01 02:56:30;;;;;;;9.70;6.28;;;;;;;20.56;41.27;95477.22;5087312;28;20035;-84
2020/12/01 02:58:56;;;;;;;7.82;5.80;;;;;;;20.54;41.37;95474.25;5086740;28;20831;-83
2020/12/01 03:01:21;;;;;;;9.07;6.90;;;;;;;20.56;41.58;95477.22;5053172;28;21825;-83
2020/12/01 03:03:47;;;;;;;8.73;6.05;;;;;;;20.52;41.69;95471.25;5103414;28;20543;-83
2020/12/01 03:06:13;;;;;;;8.77;5.93;;;;;;;20.53;41.68;95472.75;5086907;28;20032;-83
2020/12/01 03:08:40;;;;;;;8.38;5.90;;;;;;;20.52;41.30;95471.25;5089199;28;20054;-83
2020/12/01 03:11:05;;;;;;;8.93;5.97;;;;;;;20.48;41.43;95466.06;5085861;28;20468;-83
2020/12/01 03:13:31;;;;;;;7.97;5.85;;;;;;;20.50;41.39;95469.03;5086973;28;20027;-83
2020/12/01 03:16:02;;;;;;;7.88;5.90;;;;;;;20.48;41.42;95470.75;5085493;28;20036;-82
2020/12/01 03:18:27;;;;;;;8.45;6.10;;;;;;;20.46;41.37;95478.59;5053795;28;20493;-82
2020/12/01 03:20:52;;;;;;;9.23;6.50;;;;;;;20.48;41.60;95481.59;5069629;28;20040;-82
2020/12/01 03:23:18;;;;;;;8.98;6.55;;;;;;;20.46;41.53;95489.44;5052987;28;20030;-81
2020/12/01 03:25:43;;;;;;;8.77;6.25;;;;;;;20.45;41.62;95487.22;5086637;28;20039;-82
2020/12/01 03:28:09;;;;;;;9.07;6.20;;;;;;;20.44;41.46;95486.47;5069702;28;20027;-82
2020/12/01 03:30:34;;;;;;;9.93;6.50;;;;;;;20.43;41.72;95490.41;5070411;28;20057;-83
2020/12/01 03:32:59;;;;;;;8.57;5.70;;;;;;;20.44;41.30;95488.47;5086369;28;20023;-82
2020/12/01 03:35:27;;;;;;;8.27;6.00;;;;;;;20.41;41.54;95487.44;5086425;28;20031;-82
2020/12/01 03:37:53;;;;;;;10.50;6.43;;;;;;;20.40;41.57;95477.81;5086749;28;20024;-84
2020/12/01 03:40:19;;;;;;;9.90;6.32;;;;;;;20.41;41.24;95487.44;5104621;28;20047;-83
2020/12/01 03:42:44;;;;;;;9.93;6.60;;;;;;;20.38;41.11;95488.41;5105237;28;20469;-84
2020/12/01 03:45:10;;;;;;;9.48;6.38;;;;;;;20.39;41.48;95489.91;5086125;28;20223;-83
2020/12/01 03:47:35;;;;;;;8.52;6.43;;;;;;;20.38;41.30;95493.81;5104497;28;20024;-82
2020/12/01 03:50:00;;;;;;;8.93;6.35;;;;;;;20.35;41.57;95494.78;5104723;28;20032;-82
2020/12/01 03:52:26;;;;;;;9.60;6.50;;;;;;;20.34;41.35;95482.44;5089867;28;20030;-84
2020/12/01 03:54:51;;;;;;;10.15;6.60;;;;;;;20.34;41.52;95487.84;5093658;28;20027;-83
2020/12/01 03:57:17;;;;;;;10.38;6.55;;;;;;;20.35;41.25;95494.78;5123494;28;20039;-85
2020/12/01 03:59:42;;;;;;;9.68;6.70;;;;;;;20.33;41.47;95486.38;5118971;28;20030;-85
2020/12/01 04:02:08;;;;;;;9.80;7.03;;;;;;;20.35;41.37;95494.03;5089776;28;20027;-83
2020/12/01 04:04:33;;;;;;;10.18;7.40;;;;;;;20.33;41.17;95491.81;5093297;28;20031;-84
2020/12/01 04:06:58;;;;;;;9.35;6.65;;;;;;;20.32;41.03;95490.31;5122237;28;20036;-81
2020/12/01 04:09:24;;;;;;;8.90;6.57;;;;;;;20.32;41.03;95495.72;5077708;28;20093;-85
2020/12/01 04:11:50;;;;;;;9.90;7.03;;;;;;;20.31;41.05;95494.22;5112976;28;20092;-82
2020/12/01 04:14:15;;;;;;;10.23;6.97;;;;;;;20.31;41.17;95486.09;5055474;28;20482;-82
2020/12/01 04:16:40;;;;;;;10.05;7.30;;;;;;;20.31;41.05;95494.22;5105993;28;20028;-83
2020/12/01 04:19:06;;;;;;;9.07;6.57;;;;;;;20.30;40.73;95500.91;5070313;28;20054;-83
2020/12/01 04:21:31;;;;;;;10.07;6.70;;;;;;;20.28;41.13;95494.44;5105169;28;20555;-84
2020/12/01 04:23:57;;;;;;;9.93;7.32;;;;;;;20.28;41.02;95495.19;5070526;28;20074;-82
2020/12/01 04:26:22;;;;;;;11.00;7.38;;;;;;;20.26;40.99;95497.63;5088748;28;20043;-84
2020/12/01 04:28:48;;;;;;;11.48;7.40;;;;;;;20.24;41.02;95494.66;5090510;28;20085;-87
2020/12/01 04:31:13;;;;;;;9.98;7.60;;;;;;;20.25;40.92;95500.81;5088646;28;20016;-85
2020/12/01 04:33:39;;;;;;;10.82;7.13;;;;;;;20.23;41.17;95493.16;5089811;28;20027;-84
2020/12/01 04:36:04;;;;;;;10.38;7.35;;;;;;;20.21;41.06;95498.31;5106668;28;20034;-84
2020/12/01 04:38:30;;;;;;;10.60;7.45;;;;;;;20.23;40.99;95498.59;5108579;28;20020;-84
2020/12/01 04:40:56;;;;;;;11.50;7.82;;;;;;;20.30;40.96;95500.91;5089118;28;20027;-85
2020/12/01 04:43:34;;;;;;;10.70;7.25;;;;;;;20.46;40.73;95494.88;5055930;28;20088;-85
2020/12/01 04:46:00;;;;;;;10.32;7.38;;;;;;;20.60;40.96;95496.75;5066873;28;20052;-81
2020/12/01 04:48:34;;;;;;;10.88;7.38;;;;;;;20.70;40.29;95504.28;5086370;28;20085;-81
2020/12/01 04:51:05;;;;;;;11.68;7.22;;;;;;;20.77;40.41;95490.28;5065849;28;20096;-81
2020/12/01 04:54:04;;;;;;;11.88;7.78;;;;;;;20.85;40.37;95493.31;5070228;28;20116;-81
2020/12/01 04:56:54;;;;;;;11.75;8.05;;;;;;;20.89;40.04;95485.69;5071789;28;20047;-80
2020/12/01 04:59:40;;;;;;;12.43;8.00;;;;;;;20.96;40.32;95488.00;5088453;28;20031;-82
2020/12/01 05:02:27;;;;;;;13.15;8.07;;;;;;;21.03;40.02;95489.03;5086011;28;20032;-81
2020/12/01 05:06:18;;;;;;;11.85;7.85;;;;;;;21.10;39.75;95488.56;5084806;28;20032;-82
2020/12/01 05:08:45;;;;;;;13.20;8.50;;;;;;;21.18;39.30;95488.88;5033634;28;20045;-82
2020/12/01 05:11:31;;;;;;;11.80;8.13;;;;;;;21.24;39.63;95487.72;5034868;28;20087;-82
2020/12/01 05:14:01;;;;;;;13.57;8.65;;;;;;;21.31;39.39;95492.69;5068174;28;20497;-82
2020/12/01 05:16:26;;;;;;;12.90;8.88;;;;;;;21.37;39.29;95501.59;5076137;28;20048;-81
2020/12/01 05:18:51;;;;;;;12.63;8.63;;;;;;;21.42;39.01;95488.06;5104379;28;20032;-80
2020/12/01 05:21:21;;;;;;;13.70;9.43;;;;;;;21.50;39.00;95477.53;5087825;28;22396;-81
2020/12/01 05:23:48;;;;;;;13.80;8.93;;;;;;;21.55;38.88;95479.53;5068711;28;20012;-81
2020/12/01 05:26:15;;;;;;;13.27;8.30;;;;;;;21.61;38.70;95478.34;5087956;28;20039;-81
2020/12/01 05:28:48;;;;;;;14.45;9.35;;;;;;;21.68;38.68;95477.13;5086238;28;20660;-80
2020/12/01 05:31:14;;;;;;;14.70;9.70;;;;;;;21.74;38.59;95486.06;5122457;27;20044;-81
2020/12/01 05:33:39;;;;;;;15.93;10.35;;;;;;;21.79;38.48;95490.78;5087589;28;20167;-81
2020/12/01 05:36:15;;;;;;;14.93;9.38;;;;;;;21.84;38.32;95492.75;5092514;28;20036;-81
2020/12/01 05:38:41;;;;;;;14.85;9.70;;;;;;;21.87;38.10;95495.28;5069695;28;20034;-80
2020/12/01 05:41:21;;;;;;;13.95;9.27;;;;;;;21.91;38.09;95495.03;5086809;28;20032;-82
2020/12/01 05:44:02;;;;;;;14.85;9.88;;;;;;;21.92;38.05;95498.00;5103109;28;20032;-82
2020/12/01 05:46:32;;;;;;;15.40;9.95;;;;;;;21.94;37.84;95492.84;5070901;28;20032;-82
2020/12/01 05:49:17;;;;;;;15.60;9.68;;;;;;;21.99;38.05;95502.97;5084774;28;20027;-81
2020/12/01 05:51:44;;;;;;;16.38;10.20;;;;;;;22.05;37.69;95498.31;5094489;28;20023;-81
2020/12/01 05:54:20;;;;;;;16.67;10.85;;;;;;;22.11;37.47;95501.78;5084472;28;20024;-81
2020/12/01 05:56:51;;;;;;;15.65;10.48;;;;;;;22.15;37.51;95494.16;5071741;28;20084;-83
2020/12/01 05:59:18;;;;;;;18.00;10.80;;;;;;;22.21;37.32;95500.38;5068983;28;20519;-84
2020/12/01 06:01:44;;;;;;;15.60;11.13;;;;;;;22.28;37.31;95496.44;5086017;28;20054;-82
2020/12/01 06:04:25;;;;;;;16.90;11.38;;;;;;;22.31;37.42;95496.19;5086393;28;20031;-82
2020/12/01 06:07:01;;;;;;;17.02;10.63;;;;;;;22.39;36.93;95491.03;5102852;28;20516;-83
2020/12/01 06:10:05;;;;;;;16.73;11.25;;;;;;;22.42;37.05;95496.97;5087611;28;20421;-82
2020/12/01 06:13:06;;;;;;;17.80;11.63;;;;;;;22.47;36.77;95492.78;5089890;28;20031;-84
2020/12/01 06:15:32;;;;;;;20.13;11.82;;;;;;;22.59;36.72;95483.41;5023250;28;20045;-87
2020/12/01 06:18:12;;;;;;;17.90;11.25;;;;;;;22.65;36.62;95492.34;5090624;28;20055;-84
2020/12/01 06:20:54;;;;;;;16.60;10.65;;;;;;;22.74;36.95;95483.94;5092343;28;20035;-84
2020/12/01 06:23:32;;;;;;;16.17;10.65;;;;;;;22.82;36.55;95490.38;5096778;28;20034;-86
2020/12/01 06:26:18;;;;;;;18.80;11.73;;;;;;;22.70;36.58;95483.41;5113184;28;20051;-89
2020/12/01 06:28:52;;;;;;;16.40;11.73;;;;;;;22.69;36.68;95487.38;5106295;28;20074;-91
2020/12/01 06:31:52;;;;;;;17.83;11.43;;;;;;;22.62;36.39;95487.88;5106970;28;20616;-88
2020/12/01 06:34:35;;;;;;;18.73;11.93;;;;;;;22.58;36.64;95492.81;5074093;28;20038;-88
2020/12/01 06:37:29;;;;;;;23.40;13.63;;;;;;;22.64;36.48;95483.41;5089197;28;20032;-85
2020/12/01 06:40:00;;;;;;;20.90;13.15;;;;;;;22.76;36.31;95487.63;5100313;28;20036;-85
2020/12/01 06:42:48;;;;;;;20.98;13.68;;;;;;;22.86;36.41;95496.31;5115233;28;20467;-88
2020/12/01 06:45:34;;;;;;;19.42;12.27;;;;;;;22.93;36.10;95497.34;5114914;28;20531;-86
2020/12/01 06:48:27;;;;;;;20.65;12.77;;;;;;;22.98;35.94;95493.88;5107197;28;20039;-85
2020/12/01 06:50:54;;;;;;;22.60;13.68;;;;;;;23.04;35.64;95502.78;5079866;28;20058;-83
2020/12/01 06:53:31;;;;;;;20.80;13.45;;;;;;;23.10;36.11;95495.34;5092176;28;20132;-92
2020/12/01 06:56:17;;;;;;;21.13;12.82;;;;;;;23.13;35.62;95497.09;5090578;28;20034;-82
2020/12/01 06:58:44;;;;;;;19.48;12.55;;;;;;;23.19;35.61;95497.84;5072511;28;20023;-88
2020/12/01 07:01:09;;;;;;;19.83;12.70;;;;;;;23.22;35.55;95491.41;5089141;28;20034;-88
2020/12/01 07:03:35;;;;;;;19.13;12.57;;;;;;;23.25;35.40;95489.66;5088297;28;20115;-91
2020/12/01 07:06:51;;;;;;;18.23;12.75;;;;;;;23.27;35.63;95492.63;5108741;28;20039;-90
2020/12/01 07:09:19;;;;;;;20.02;12.45;;;;;;;23.29;35.39;95485.44;5062711;28;20127;-90
2020/12/01 07:11:53;;;;;;;18.77;12.88;;;;;;;23.32;35.24;95487.19;5088399;28;20035;-90
2020/12/01 07:14:26;;;;;;;19.58;13.20;;;;;;;23.34;35.31;95481.97;5088979;28;20039;-90
2020/12/01 07:16:52;;;;;;;20.20;13.60;;;;;;;23.38;35.69;95487.91;5071645;28;20032;-81
2020/12/01 07:19:37;;;;;;;19.92;12.40;;;;;;;23.40;35.81;95485.44;5086987;28;20020;-84
2020/12/01 07:22:21;;;;;;;20.10;12.98;;;;;;;23.44;35.62;95483.19;5072247;28;20039;-85
2020/12/01 07:24:51;;;;;;;20.50;13.65;;;;;;;23.44;35.12;95480.47;5088598;28;20032;-88
2020/12/01 07:27:28;;;;;;;20.90;13.65;;;;;;;23.40;35.40;95477.25;5070021;28;20120;-86
2020/12/01 07:30:14;;;;;;;21.27;13.45;;;;;;;23.40;35.32;95474.53;5085014;28;20026;-85
2020/12/01 07:32:58;;;;;;;21.90;14.68;;;;;;;23.36;35.07;95474.03;5052773;28;20027;-87
2020/12/01 07:35:38;;;;;;;20.50;13.43;;;;;;;23.44;35.68;95472.31;5100794;28;20026;-79
2020/12/01 07:38:10;;;;;;;;;;;;;;;23.50;35.74;95475.75;5111826;28;20059;-80
2020/12/01 07:40:46;;;;;;;21.13;13.40;;;;;;;23.55;35.49;95469.53;5111983;28;19937;-82
2020/12/01 07:43:13;;;;;;;22.08;14.85;;;;;;;23.55;35.60;95469.53;5099351;28;20035;-80
2020/12/01 07:45:38;;;;;;;22.42;13.82;;;;;;;23.55;35.93;95472.28;5070993;28;20051;-79
2020/12/01 07:48:04;;;;;;;22.77;14.43;;;;;;;23.56;35.64;95468.31;5102074;28;20539;-79
2020/12/01 07:50:30;;;;;;;19.25;13.55;;;;;;;23.56;35.54;95471.03;5099937;28;20027;-79
2020/12/01 07:53:10;;;;;;;20.63;14.25;;;;;;;23.55;35.90;95464.09;5077056;28;20122;-81
2020/12/01 07:55:39;;;;;;;22.92;13.98;;;;;;;23.53;35.75;95455.69;5083250;28;20077;-80
2020/12/01 07:58:25;;;;;;;20.83;13.48;;;;;;;23.53;35.88;95461.88;5066786;28;20081;-81
2020/12/01 08:00:55;;;;;;;21.15;13.90;;;;;;;23.53;35.55;95472.03;5079405;28;20122;-79
2020/12/01 08:03:23;;;;;;;20.45;13.90;;;;;;;23.51;35.80;95464.34;5103433;28;20028;-81
2020/12/01 08:05:49;;;;;;;21.63;13.65;;;;;;;23.50;35.54;95456.69;5085351;28;20039;-80
2020/12/01 08:08:16;;;;;;;20.52;13.50;;;;;;;23.47;35.63;95457.69;5089279;28;20027;-80
2020/12/01 08:10:42;;;;;;;22.70;14.48;;;;;;;23.44;35.58;95459.41;5086839;28;20500;-81
2020/12/01 08:13:08;;;;;;;21.75;13.85;;;;;;;23.42;35.94;95455.69;5070614;28;20066;-80
2020/12/01 08:15:33;;;;;;;22.30;14.23;;;;;;;23.39;35.86;95460.16;5102730;28;20020;-80
2020/12/01 08:18:06;;;;;;;22.95;14.15;;;;;;;23.37;35.99;95451.00;5071126;28;20489;-80
2020/12/01 08:20:31;;;;;;;22.17;14.27;;;;;;;23.36;35.47;95451.50;5086720;28;20054;-81
2020/12/01 08:23:06;;;;;;;21.77;14.65;;;;;;;23.34;35.86;95453.97;5088214;28;20080;-80
2020/12/01 08:25:32;;;;;;;22.45;13.82;;;;;;;23.35;35.78;95456.22;5065839;28;20035;-80
2020/12/01 08:28:18;;;;;;;23.05;15.10;;;;;;;23.36;35.60;95456.94;5070761;28;20047;-79
2020/12/01 08:31:06;;;;;;;20.88;14.18;;;;;;;23.34;35.71;95446.53;5086589;28;20036;-80
2020/12/01 08:33:47;;;;;;;22.30;15.38;;;;;;;23.33;35.59;95445.03;5090602;28;20126;-80
2020/12/01 08:36:26;;;;;;;21.83;15.10;;;;;;;23.33;35.91;95447.78;5085366;28;20039;-80
2020/12/01 08:39:25;;;;;;;22.05;14.95;;;;;;;23.34;35.39;95449.25;5087380;28;20035;-80
2020/12/01 08:41:53;;;;;;;22.50;15.15;;;;;;;23.34;35.50;95454.72;5053759;28;20066;-80
2020/12/01 08:44:35;;;;;;;22.90;15.60;;;;;;;23.30;35.91;95454.22;5101762;28;20511;-80
2020/12/01 08:47:01;;;;;;;25.60;16.33;;;;;;;23.27;35.69;95455.22;5092991;28;20570;-81
2020/12/01 08:49:41;;;;;;;25.92;16.45;;;;;;;23.26;35.50;95453.75;5072209;28;20032;-81
2020/12/01 08:52:26;;;;;;;23.98;15.65;;;;;;;23.27;35.61;95457.19;5105271;28;20418;-80
2020/12/01 08:54:57;;;;;;;23.35;15.55;;;;;;;23.27;35.54;95449.75;5088659;28;20096;-80
2020/12/01 08:57:37;;;;;;;24.42;16.25;;;;;;;23.28;35.57;95456.69;5088841;28;20028;-81
2020/12/01 09:00:14;;;;;;;22.55;16.05;;;;;;;23.28;35.95;95445.06;5070648;28;20036;-80
2020/12/01 09:02:49;;;;;;;24.23;16.38;;;;;;;23.23;35.60;95437.63;5104179;28;20509;-80
2020/12/01 09:05:28;;;;;;;24.00;16.40;;;;;;;23.23;35.59;95432.94;5071102;28;20114;-81
2020/12/01 09:13:57;;;;;;;25.38;17.25;;;;;;;23.22;35.75;95431.44;5115294;28;20047;-80
2020/12/01 09:17:16;;;;;;;24.45;17.02;;;;;;;23.21;35.57;95435.41;5112682;28;20032;-80
2020/12/01 09:19:39;;;;;;;24.73;16.88;;;;;;;23.17;35.35;95424.03;5066128;28;20031;-81
2020/12/01 09:22:27;;;;;;;25.15;16.52;;;;;;;23.18;35.76;95422.78;5082211;28;20091;-80
2020/12/01 09:25:06;;;;;;;26.38;16.70;;;;;;;23.17;35.59;95413.13;5073059;28;20075;-80
2020/12/01 09:27:33;;;;;;;24.57;16.43;;;;;;;23.17;35.67;95407.69;5088181;28;20042;-80
2020/12/01 09:29:58;;;;;;;25.65;16.67;;;;;;;23.17;35.41;95402.22;5071293;28;20273;-80
2020/12/01 09:32:24;;;;;;;27.20;17.92;;;;;;;23.16;35.73;95394.56;5088624;28;20031;-81
2020/12/01 09:34:50;;;;;;;27.75;17.33;;;;;;;23.17;35.92;95390.56;5104868;28;20416;-80
2020/12/01 09:37:15;;;;;;;27.02;18.10;;;;;;;23.17;35.66;95379.69;5104119;28;20107;-80
2020/12/01 09:39:41;;;;;;;25.65;17.58;;;;;;;23.16;35.76;95378.22;5088359;28;20046;-80
2020/12/01 09:47:35;;;;;;;29.17;18.80;;;;;;;23.18;35.69;95376.47;5106645;28;20199;-81
2020/12/01 09:50:01;;;;;;;28.45;18.73;;;;;;;23.19;35.66;95369.03;5105308;28;20047;-79
2020/12/01 09:52:35;;;;;;;28.45;18.80;;;;;;;23.19;34.84;95369.78;5105728;28;20032;-80
2020/12/01 09:55:22;;;;;;;29.55;19.65;;;;;;;23.19;35.56;95367.06;5099416;28;22271;-80
2020/12/01 09:58:02;;;;;;;28.42;18.65;;;;;;;23.16;35.25;95362.59;5088269;28;20485;-80
2020/12/01 10:00:57;;;;;;;28.92;18.63;;;;;;;23.16;35.28;95368.06;5106163;28;20031;-80
2020/12/01 10:08:23;;;;;;;31.33;19.85;;;;;;;23.18;35.35;95360.09;5111898;28;20239;-80
2020/12/01 10:36:56;;;;;;;32.20;21.17;;;;;;;23.63;34.67;95326.75;5103126;28;20516;-81
2020/12/01 10:39:22;;;;;;;32.22;20.35;;;;;;;23.67;34.64;95323.78;5104750;28;20482;-81
2020/12/01 10:41:47;;;;;;;31.45;20.13;;;;;;;23.73;34.67;95311.59;5068828;28;20031;-82
2020/12/01 10:44:13;;;;;;;46.08;22.50;;;;;;;23.80;34.02;95310.34;5070244;28;20059;-81
2020/12/01 10:46:39;;;;;;;36.80;22.00;;;;;;;23.83;34.13;95314.78;5102152;28;20048;-81
2020/12/01 10:49:04;;;;;;;32.97;21.25;;;;;;;23.88;34.36;95312.78;5069520;28;20560;-81
2020/12/01 10:51:32;;;;;;;33.35;21.65;;;;;;;23.94;34.50;95310.72;5097951;28;20102;-82
2020/12/01 10:53:58;;;;;;;34.83;22.52;;;;;;;24.03;33.87;95302.22;5085594;28;20023;-81
2020/12/01 10:56:23;;;;;;;34.13;21.85;;;;;;;24.07;33.46;95308.16;5086147;28;20084;-82
2020/12/01 10:58:48;;;;;;;38.13;21.95;;;;;;;24.10;34.01;95301.69;5085967;28;20463;-82
2020/12/01 11:01:14;;;;;;;41.70;22.90;;;;;;;24.18;33.67;95308.09;5103056;28;20040;-81
2020/12/01 11:03:40;;;;;;;36.28;21.27;;;;;;;24.23;34.09;95299.13;5112059;28;20058;-81
2020/12/01 11:06:05;;;;;;;37.28;21.98;;;;;;;24.25;33.52;95296.63;5111670;28;20050;-80
2020/12/01 11:08:31;;;;;;;37.15;21.90;;;;;;;24.29;33.67;95297.09;5113080;28;20031;-81
2020/12/01 11:10:56;;;;;;;33.95;22.02;;;;;;;24.33;34.07;95297.59;5086469;28;20385;-81
2020/12/01 11:13:22;;;;;;;40.78;23.17;;;;;;;24.32;34.23;95279.72;5085583;28;20088;-84
2020/12/01 11:15:47;;;;;;;35.50;22.63;;;;;;;24.43;33.95;95257.81;5103600;28;20112;-85
2020/12/01 11:18:12;;;;;;;37.30;24.10;;;;;;;24.46;34.10;95262.97;5102951;28;20035;-81
2020/12/01 11:20:38;;;;;;;37.40;24.67;;;;;;;24.51;33.64;95253.25;5103946;28;20086;-81
2020/12/01 11:23:04;;;;;;;37.67;23.60;;;;;;;24.55;33.25;95253.72;5101175;28;20488;-81
2020/12/01 11:25:29;;;;;;;39.67;24.77;;;;;;;24.56;33.53;95247.00;5096930;28;20039;-78
2020/12/01 11:27:54;;;;;;;37.33;24.02;;;;;;;24.63;33.54;95232.78;5085683;28;20039;-80
2020/12/01 11:30:21;;;;;;;43.25;26.88;;;;;;;24.67;32.74;95233.25;5085228;28;20084;-81
2020/12/01 11:32:46;;;;;;;41.75;26.38;;;;;;;24.71;32.62;95230.94;5099957;28;20032;-80
2020/12/01 11:35:12;;;;;;;45.50;26.92;;;;;;;24.77;32.73;95231.63;5102557;28;20040;-80
2020/12/01 11:37:38;;;;;;;41.55;25.55;;;;;;;24.82;32.51;95225.38;5084439;28;21031;-79
2020/12/01 11:40:04;;;;;;;46.78;27.27;;;;;;;24.89;32.01;95234.47;5098944;28;20028;-79
2020/12/01 11:42:30;;;;;;;42.28;26.35;;;;;;;24.94;32.35;95225.47;5084521;28;20034;-80
2020/12/01 11:44:55;;;;;;;48.97;28.80;;;;;;;24.98;31.82;95220.47;5086366;28;20513;-81
2020/12/01 11:47:21;;;;;;;45.70;28.40;;;;;;;25.01;32.09;95224.94;5086397;28;20068;-80
2020/12/01 11:49:47;;;;;;;46.13;28.98;;;;;;;25.09;31.96;95220.34;5105406;28;20094;-79
2020/12/01 11:52:12;;;;;;;49.15;29.55;;;;;;;25.11;32.10;95223.34;5114047;28;20058;-79
2020/12/01 11:54:38;;;;;;;52.70;31.40;;;;;;;25.12;32.40;95202.94;5086595;28;20032;-81
2020/12/01 11:57:04;;;;;;;49.70;32.90;;;;;;;25.16;32.88;95210.84;5083819;28;20092;-83
2020/12/01 11:59:29;;;;;;;50.33;32.38;;;;;;;25.19;32.64;95207.81;5085004;28;20409;-83
2020/12/01 12:01:55;;;;;;;53.97;32.83;;;;;;;25.17;32.71;95220.50;5084756;28;20027;-85
2020/12/01 12:04:20;;;;;;;54.25;33.97;;;;;;;25.21;33.14;95218.97;5092779;28;20155;-86
2020/12/01 12:06:46;;;;;;;52.55;31.95;;;;;;;25.26;32.99;95209.22;5104756;28;20039;-89
2020/12/01 12:09:11;;;;;;;54.70;32.55;;;;;;;25.26;33.62;95212.72;5088484;28;20626;-88
2020/12/01 12:11:37;;;;;;;54.47;32.85;;;;;;;25.27;34.20;95208.69;5086702;28;20024;-87
2020/12/01 12:14:02;;;;;;;50.65;31.15;;;;;;;25.28;33.91;95204.72;5086404;28;20030;-87
2020/12/01 12:16:28;;;;;;;50.25;30.50;;;;;;;25.28;34.02;95209.47;5068480;28;20027;-86
2020/12/01 12:18:53;;;;;;;50.20;30.98;;;;;;;25.24;34.15;95207.00;5086720;28;20027;-84
2020/12/01 12:21:19;;;;;;;50.15;32.08;;;;;;;25.30;34.14;95202.19;5068235;28;20052;-83